createdAt,value
2023-02-06T00:07:56.751Z,5.55
2023-02-06T00:17:58.903Z,5.34
2023-02-06T00:28:01.097Z,4.59
2023-02-06T00:38:03.336Z,5.72
2023-02-06T00:48:05.812Z,5.38
2023-02-06T00:58:08.026Z,5.01
2023-02-06T01:08:10.214Z,4.87
2023-02-06T01:18:12.769Z,4.10
2023-02-06T01:28:15.989Z,4.72
2023-02-06T01:38:18.195Z,4.14
2023-02-06T01:48:35.716Z,4.07
2023-02-06T01:58:41.433Z,4.09
2023-02-06T02:08:46.064Z,3.91
2023-02-06T02:19:10.001Z,3.93
2023-02-06T02:29:36.278Z,3.62
2023-02-06T02:39:49.555Z,3.81
2023-02-06T02:49:53.218Z,3.58
2023-02-06T02:59:57.733Z,3.34
2023-02-06T03:10:09.660Z,3.57
2023-02-06T03:20:12.638Z,2.92
2023-02-06T03:30:16.295Z,3.46
2023-02-06T03:40:18.705Z,3.18
2023-02-06T03:50:21.345Z,3.21
2023-02-06T04:00:25.432Z,2.80
2023-02-06T04:10:27.722Z,3.04
2023-02-06T04:20:32.941Z,3.07
2023-02-06T04:30:35.078Z,2.88
2023-02-06T04:40:37.208Z,2.96
2023-02-06T04:50:39.310Z,2.84
2023-02-06T05:00:42.980Z,2.60
2023-02-06T05:10:45.726Z,2.60
2023-02-06T05:20:48.057Z,2.95
2023-02-06T05:30:50.697Z,2.20
2023-02-06T05:40:53.860Z,3.29
2023-02-06T05:50:58.245Z,3.73
2023-02-06T06:01:01.639Z,3.32
2023-02-06T06:11:03.804Z,3.74
2023-02-06T06:21:06.135Z,3.50
2023-02-06T06:31:12.047Z,4.05
2023-02-06T06:41:14.348Z,3.61
2023-02-06T06:51:16.662Z,3.92
2023-02-06T07:01:19.431Z,3.94
2023-02-06T07:11:21.861Z,3.88
2023-02-06T07:21:23.957Z,4.09
2023-02-06T07:31:26.118Z,4.03
2023-02-06T07:41:28.243Z,3.43
2023-02-06T07:51:30.582Z,4.61
2023-02-06T08:01:32.769Z,4.24
2023-02-06T08:11:36.073Z,4.43
2023-02-06T08:21:38.448Z,4.37
2023-02-06T08:31:42.091Z,4.14
2023-02-06T08:41:44.584Z,4.16
2023-02-06T08:51:47.659Z,3.64
2023-02-06T09:01:49.887Z,4.64
2023-02-06T09:11:53.428Z,4.71
2023-02-06T09:21:55.861Z,4.52
2023-02-06T09:31:58.092Z,4.36
2023-02-06T09:42:05.317Z,4.79
2023-02-06T09:52:17.171Z,5.11
2023-02-06T10:02:41.435Z,4.68
2023-02-06T10:12:57.411Z,4.82
2023-02-06T10:23:16.400Z,5.14
2023-02-06T10:33:41.518Z,5.63
2023-02-06T10:43:46.441Z,5.24
2023-02-06T10:53:58.597Z,5.41
2023-02-06T11:04:39.691Z,5.54
2023-02-06T11:14:42.061Z,6.11
2023-02-06T11:25:04.658Z,5.59
2023-02-06T11:35:31.147Z,4.91
2023-02-06T11:45:34.457Z,5.68
2023-02-06T11:55:38.861Z,4.53
2023-02-06T12:05:42.941Z,5.60
2023-02-06T12:15:48.475Z,5.23
2023-02-06T12:25:54.820Z,5.30
2023-02-06T12:36:03.233Z,5.52
2023-02-06T12:46:14.354Z,5.52
2023-02-06T12:56:40.725Z,6.07
2023-02-06T13:06:48.372Z,5.51
2023-02-06T13:16:51.780Z,6.61
2023-02-06T13:26:56.294Z,6.53
2023-02-06T13:37:37.507Z,6.45
2023-02-06T13:47:48.040Z,6.47
2023-02-06T13:58:24.753Z,6.98
2023-02-06T14:08:49.309Z,6.43
2023-02-06T14:19:05.169Z,6.41
2023-02-06T14:29:29.129Z,6.20
2023-02-06T14:39:55.935Z,7.10
2023-02-06T14:50:00.930Z,6.85
2023-02-06T15:00:18.176Z,7.10
2023-02-06T15:10:28.573Z,7.10
2023-02-06T15:20:36.166Z,7.21
2023-02-06T15:30:38.970Z,6.95
2023-02-06T15:40:44.554Z,7.13
2023-02-06T15:51:19.591Z,6.72
2023-02-06T16:01:21.994Z,6.84
2023-02-06T16:11:50.982Z,7.00
2023-02-06T16:22:17.566Z,6.49
2023-02-06T16:32:28.686Z,6.27
2023-02-06T16:42:37.712Z,5.97
2023-02-06T16:52:51.777Z,6.36
2023-02-06T17:02:54.825Z,6.14
2023-02-06T17:12:56.974Z,6.17
2023-02-06T17:22:59.088Z,6.12
2023-02-06T17:33:02.196Z,6.07
2023-02-06T17:43:04.807Z,5.96
2023-02-06T17:53:12.948Z,5.88
2023-02-06T18:03:18.442Z,5.82
2023-02-06T18:13:21.494Z,5.59
2023-02-06T18:23:24.781Z,5.96
2023-02-06T18:33:26.954Z,5.57
2023-02-06T18:43:29.439Z,5.58
2023-02-06T18:53:32.665Z,5.56
2023-02-06T19:03:36.729Z,5.13
2023-02-06T19:13:40.550Z,5.42
2023-02-06T19:23:45.589Z,5.26
2023-02-06T19:33:49.093Z,5.37
2023-02-06T19:53:35.528Z,1.71
2023-02-06T20:03:38.177Z,2.10
2023-02-06T20:13:40.858Z,2.14
2023-02-06T20:23:43.164Z,2.17
2023-02-06T20:33:46.157Z,1.85
2023-02-06T20:43:48.542Z,1.92
2023-02-06T20:53:51.113Z,1.71
2023-02-06T21:03:56.259Z,1.01
2023-02-06T21:14:01.560Z,1.18
2023-02-06T21:24:04.451Z,0.79
2023-02-06T21:34:18.417Z,0.77
2023-02-06T21:44:23.790Z,1.00
2023-02-06T21:54:25.892Z,0.96
2023-02-06T22:04:28.045Z,1.22
2023-02-06T22:14:30.233Z,0.61
2023-02-06T22:24:32.567Z,0.49
2023-02-06T22:34:34.876Z,0.81
2023-02-06T22:44:37.184Z,0.36
2023-02-06T22:54:40.382Z,0.42
2023-02-06T23:04:43.519Z,-0.23
2023-02-06T23:14:45.890Z,0.07
2023-02-06T23:24:50.330Z,-0.31
2023-02-06T23:34:52.681Z,0.17
2023-02-06T23:44:54.896Z,-0.76
2023-02-06T23:54:57.348Z,-0.46
